SEH2MT LGMK-LGAV
Flight info
| Callsign | SEH2MT |
|---|---|
| Flight time | 0h 26m |
| Altitude | 12000 |
| Route | VARIX DCT KEA DCT AV424 |
| Aircraft | AT76/M-SDFGIRY/S |
Departure
| Time | 2026-04-22 13:55 |
|---|---|
| Airport | Mykonos Island National Airport (LGMK) |
Arrival
| Time | 2026-04-22 14:22 |
|---|---|
| Airport | Athens Eleftherios Venizelos International Airport (LGAV) |
| Time | Latitude | Longitude | Altitude | Speed | Heading |
|---|---|---|---|---|---|
| 2026-04-22 13:39 | 37.43529 | 25.34649 | 392 ft | 0 kts | 252° |
| 2026-04-22 13:50 | 37.43531 | 25.34663 | 409 ft | 0 kts | 236° |
| 2026-04-22 13:50 | 37.43531 | 25.34665 | 409 ft | 0 kts | 208° |
| 2026-04-22 13:50 | 37.43534 | 25.34668 | 409 ft | 2 kts | 174° |
| 2026-04-22 13:51 | 37.43538 | 25.34667 | 408 ft | 0 kts | 174° |
| 2026-04-22 13:52 | 37.43368 | 25.34822 | 410 ft | 34 kts | 142° |
| 2026-04-22 13:53 | 37.43204 | 25.34947 | 410 ft | 22 kts | 157° |
| 2026-04-22 13:53 | 37.43076 | 25.35009 | 411 ft | 17 kts | 160° |
| 2026-04-22 13:53 | 37.42929 | 25.35068 | 410 ft | 31 kts | 165° |
| 2026-04-22 13:53 | 37.42792 | 25.35104 | 412 ft | 26 kts | 171° |
| 2026-04-22 13:54 | 37.42669 | 25.35159 | 410 ft | 18 kts | 94° |
| 2026-04-22 13:54 | 37.42746 | 25.35184 | 410 ft | 13 kts | 312° |
| 2026-04-22 13:54 | 37.43031 | 25.35020 | 408 ft | 83 kts | 347° |
| 2026-04-22 13:54 | 37.43736 | 25.34555 | 638 ft | 129 kts | 325° |
| 2026-04-22 13:55 | 37.44559 | 25.33679 | 881 ft | 170 kts | 313° |
| 2026-04-22 13:55 | 37.45510 | 25.32668 | 1399 ft | 194 kts | 323° |
| 2026-04-22 13:55 | 37.47108 | 25.31368 | 2064 ft | 216 kts | 327° |
| 2026-04-22 13:55 | 37.47947 | 25.30643 | 2418 ft | 221 kts | 317° |
| 2026-04-22 13:56 | 37.48668 | 25.28945 | 2914 ft | 227 kts | 278° |
| 2026-04-22 13:56 | 37.48557 | 25.26985 | 3420 ft | 222 kts | 264° |
| 2026-04-22 13:56 | 37.48738 | 25.25036 | 3924 ft | 228 kts | 281° |
| 2026-04-22 13:56 | 37.49032 | 25.23047 | 4427 ft | 234 kts | 279° |
| 2026-04-22 13:57 | 37.49261 | 25.20997 | 4929 ft | 238 kts | 276° |
| 2026-04-22 13:57 | 37.49424 | 25.18906 | 5427 ft | 242 kts | 274° |
| 2026-04-22 13:57 | 37.49562 | 25.16786 | 5932 ft | 244 kts | 274° |
| 2026-04-22 13:57 | 37.49692 | 25.14637 | 6433 ft | 246 kts | 274° |
| 2026-04-22 13:58 | 37.49840 | 25.12480 | 6933 ft | 248 kts | 274° |
| 2026-04-22 13:58 | 37.49998 | 25.10307 | 7437 ft | 250 kts | 275° |
| 2026-04-22 13:58 | 37.50164 | 25.08120 | 7935 ft | 252 kts | 275° |
| 2026-04-22 13:58 | 37.50328 | 25.05913 | 8436 ft | 253 kts | 275° |
| 2026-04-22 13:59 | 37.50492 | 25.03697 | 8937 ft | 255 kts | 275° |
| 2026-04-22 13:59 | 37.50656 | 25.01469 | 9437 ft | 256 kts | 275° |
| 2026-04-22 13:59 | 37.50819 | 24.99230 | 9938 ft | 257 kts | 275° |
| 2026-04-22 13:59 | 37.50984 | 24.96977 | 10443 ft | 258 kts | 275° |
| 2026-04-22 14:00 | 37.51147 | 24.94727 | 10939 ft | 259 kts | 275° |
| 2026-04-22 14:00 | 37.51312 | 24.92460 | 11440 ft | 260 kts | 275° |
| 2026-04-22 14:00 | 37.51478 | 24.90184 | 11887 ft | 264 kts | 275° |
| 2026-04-22 14:00 | 37.51649 | 24.87817 | 11947 ft | 278 kts | 275° |
| 2026-04-22 14:01 | 37.51826 | 24.85386 | 11975 ft | 278 kts | 275° |
| 2026-04-22 14:01 | 37.51999 | 24.82968 | 11988 ft | 276 kts | 275° |
| 2026-04-22 14:01 | 37.52348 | 24.80601 | 11995 ft | 277 kts | 283° |
| 2026-04-22 14:01 | 37.52819 | 24.78243 | 11997 ft | 277 kts | 284° |
| 2026-04-22 14:02 | 37.53314 | 24.75924 | 11998 ft | 278 kts | 285° |
| 2026-04-22 14:02 | 37.53835 | 24.73543 | 11999 ft | 278 kts | 285° |
| 2026-04-22 14:02 | 37.54346 | 24.71228 | 11952 ft | 280 kts | 285° |
| 2026-04-22 14:02 | 37.54875 | 24.68871 | 11505 ft | 274 kts | 285° |
| 2026-04-22 14:03 | 37.55388 | 24.66608 | 11052 ft | 264 kts | 285° |
| 2026-04-22 14:03 | 37.55883 | 24.64411 | 10598 ft | 257 kts | 285° |
| 2026-04-22 14:03 | 37.56364 | 24.62269 | 10147 ft | 252 kts | 285° |
| 2026-04-22 14:03 | 37.56837 | 24.60160 | 9695 ft | 248 kts | 285° |
| 2026-04-22 14:04 | 37.57302 | 24.58081 | 9238 ft | 245 kts | 285° |
| 2026-04-22 14:04 | 37.57761 | 24.56026 | 8793 ft | 243 kts | 285° |
| 2026-04-22 14:04 | 37.58214 | 24.53996 | 8455 ft | 236 kts | 285° |
| 2026-04-22 14:04 | 37.58653 | 24.52023 | 8207 ft | 233 kts | 285° |
| 2026-04-22 14:05 | 37.59089 | 24.50058 | 7968 ft | 232 kts | 285° |
| 2026-04-22 14:05 | 37.59522 | 24.48108 | 7712 ft | 231 kts | 285° |
| 2026-04-22 14:05 | 37.60391 | 24.44209 | 7207 ft | 230 kts | 285° |
| 2026-04-22 14:06 | 37.60824 | 24.42268 | 6956 ft | 230 kts | 285° |
| 2026-04-22 14:06 | 37.61256 | 24.40330 | 6706 ft | 229 kts | 285° |
| 2026-04-22 14:06 | 37.61688 | 24.38396 | 6460 ft | 229 kts | 285° |
| 2026-04-22 14:06 | 37.62118 | 24.36465 | 6214 ft | 229 kts | 285° |
| 2026-04-22 14:07 | 37.62550 | 24.34532 | 5968 ft | 229 kts | 285° |
| 2026-04-22 14:07 | 37.62978 | 24.32603 | 5710 ft | 229 kts | 285° |
| 2026-04-22 14:07 | 37.63409 | 24.30671 | 5462 ft | 228 kts | 285° |
| 2026-04-22 14:07 | 37.63838 | 24.28745 | 5229 ft | 228 kts | 285° |
| 2026-04-22 14:08 | 37.64267 | 24.26814 | 4961 ft | 228 kts | 285° |
| 2026-04-22 14:08 | 37.64696 | 24.24890 | 4705 ft | 227 kts | 285° |
| 2026-04-22 14:08 | 37.65123 | 24.22973 | 4453 ft | 227 kts | 285° |
| 2026-04-22 14:08 | 37.65548 | 24.21063 | 4231 ft | 225 kts | 285° |
| 2026-04-22 14:09 | 37.65965 | 24.19189 | 4128 ft | 219 kts | 285° |
| 2026-04-22 14:09 | 37.66369 | 24.17369 | 4078 ft | 214 kts | 285° |
| 2026-04-22 14:09 | 37.66769 | 24.15557 | 4056 ft | 213 kts | 285° |
| 2026-04-22 14:09 | 37.67162 | 24.13785 | 4046 ft | 212 kts | 285° |
| 2026-04-22 14:10 | 37.67492 | 24.11992 | 4044 ft | 208 kts | 272° |
| 2026-04-22 14:10 | 37.67404 | 24.10195 | 4083 ft | 206 kts | 261° |
| 2026-04-22 14:10 | 37.67210 | 24.08417 | 4049 ft | 204 kts | 268° |
| 2026-04-22 14:10 | 37.67285 | 24.06619 | 4040 ft | 206 kts | 276° |
| 2026-04-22 14:11 | 37.67496 | 24.04825 | 4046 ft | 207 kts | 279° |
| 2026-04-22 14:11 | 37.67759 | 24.03034 | 4056 ft | 209 kts | 280° |
| 2026-04-22 14:11 | 37.68037 | 24.01228 | 4043 ft | 211 kts | 280° |
| 2026-04-22 14:11 | 37.68318 | 23.99404 | 4035 ft | 212 kts | 280° |
| 2026-04-22 14:12 | 37.68579 | 23.97581 | 4029 ft | 211 kts | 279° |
| 2026-04-22 14:12 | 37.68830 | 23.95757 | 4032 ft | 210 kts | 279° |
| 2026-04-22 14:12 | 37.69083 | 23.93942 | 4054 ft | 211 kts | 278° |
| 2026-04-22 14:12 | 37.69322 | 23.92107 | 4024 ft | 211 kts | 278° |
| 2026-04-22 14:13 | 37.69559 | 23.90280 | 4023 ft | 210 kts | 278° |
| 2026-04-22 14:13 | 37.69799 | 23.88465 | 4027 ft | 209 kts | 279° |
| 2026-04-22 14:13 | 37.70044 | 23.86659 | 4030 ft | 208 kts | 279° |
| 2026-04-22 14:13 | 37.70290 | 23.84856 | 4032 ft | 208 kts | 279° |
| 2026-04-22 14:14 | 37.70536 | 23.83056 | 4033 ft | 208 kts | 279° |
| 2026-04-22 14:14 | 37.70781 | 23.81258 | 4034 ft | 208 kts | 279° |
| 2026-04-22 14:14 | 37.71024 | 23.79460 | 4033 ft | 208 kts | 279° |
| 2026-04-22 14:14 | 37.71267 | 23.77663 | 4034 ft | 208 kts | 279° |
| 2026-04-22 14:15 | 37.71527 | 23.75870 | 3966 ft | 207 kts | 285° |
| 2026-04-22 14:15 | 37.72360 | 23.74408 | 3835 ft | 213 kts | 325° |
| 2026-04-22 14:15 | 37.73790 | 23.73943 | 3710 ft | 218 kts | 4° |
| 2026-04-22 14:15 | 37.75167 | 23.74701 | 3586 ft | 221 kts | 42° |
| 2026-04-22 14:16 | 37.76048 | 23.76266 | 3467 ft | 214 kts | 59° |
| 2026-04-22 14:16 | 37.76787 | 23.77733 | 3304 ft | 176 kts | 56° |
| 2026-04-22 14:16 | 37.77459 | 23.78940 | 3241 ft | 165 kts | 54° |
| 2026-04-22 14:16 | 37.78155 | 23.80093 | 3183 ft | 164 kts | 51° |
| 2026-04-22 14:17 | 37.78865 | 23.81095 | 3156 ft | 147 kts | 46° |
| 2026-04-22 14:17 | 37.79601 | 23.81983 | 3005 ft | 146 kts | 41° |
| 2026-04-22 14:17 | 37.80373 | 23.82817 | 2843 ft | 146 kts | 40° |
| 2026-04-22 14:17 | 37.81163 | 23.83630 | 2591 ft | 150 kts | 39° |
| 2026-04-22 14:18 | 37.81981 | 23.84461 | 2374 ft | 152 kts | 38° |
| 2026-04-22 14:18 | 37.82817 | 23.85279 | 2120 ft | 152 kts | 37° |
| 2026-04-22 14:18 | 37.83661 | 23.86090 | 1872 ft | 152 kts | 37° |
| 2026-04-22 14:18 | 37.84484 | 23.86875 | 1819 ft | 142 kts | 37° |
| 2026-04-22 14:19 | 37.85257 | 23.87610 | 1779 ft | 140 kts | 37° |
| 2026-04-22 14:19 | 37.86038 | 23.88357 | 1663 ft | 142 kts | 37° |
| 2026-04-22 14:19 | 37.86460 | 23.88759 | 1624 ft | 141 kts | 37° |
| 2026-04-22 14:20 | 37.88009 | 23.90227 | 1510 ft | 139 kts | 36° |
| 2026-04-22 14:20 | 37.88753 | 23.90935 | 1429 ft | 139 kts | 37° |
| 2026-04-22 14:20 | 37.89537 | 23.91678 | 1282 ft | 143 kts | 36° |
| 2026-04-22 14:21 | 37.91157 | 23.93177 | 625 ft | 140 kts | 37° |
| 2026-04-22 14:21 | 37.91910 | 23.93889 | 405 ft | 132 kts | 37° |
| 2026-04-22 14:22 | 37.93185 | 23.95101 | 284 ft | 37 kts | 34° |
| 2026-04-22 14:22 | 37.93414 | 23.95282 | 294 ft | 65 kts | 29° |
| 2026-04-22 14:22 | 37.93492 | 23.95224 | 290 ft | 0 kts | 238° |
| 2026-04-22 14:23 | 37.93490 | 23.95219 | 290 ft | 11 kts | 238° |
| 2026-04-22 14:23 | 37.93570 | 23.95026 | 287 ft | 41 kts | 339° |
| 2026-04-22 14:23 | 37.93774 | 23.95236 | 288 ft | 38 kts | 56° |
| 2026-04-22 14:23 | 37.93907 | 23.95498 | 292 ft | 32 kts | 58° |
| 2026-04-22 14:24 | 37.94046 | 23.95674 | 298 ft | 26 kts | 33° |
| 2026-04-22 14:24 | 37.94181 | 23.95656 | 297 ft | 18 kts | 310° |
| 2026-04-22 14:24 | 37.94179 | 23.95510 | 289 ft | 17 kts | 294° |
| 2026-04-22 14:24 | 37.94200 | 23.95503 | 293 ft | 4 kts | 52° |
| 2026-04-22 14:25 | 37.94233 | 23.95551 | 292 ft | 0 kts | 34° |